sensor_id;sensor_type;location;lat;lon;timestamp;P1;durP1;ratioP1;P2;durP2;ratioP2
3121;SDS011;1571;52.524;14.104;2023-05-21T00:01:27;17.17;;;15.50;;
3121;SDS011;1571;52.524;14.104;2023-05-21T00:03:55;16.00;;;14.43;;
3121;SDS011;1571;52.524;14.104;2023-05-21T00:06:25;16.53;;;15.13;;
3121;SDS011;1571;52.524;14.104;2023-05-21T00:08:54;16.77;;;15.27;;
3121;SDS011;1571;52.524;14.104;2023-05-21T00:11:22;18.93;;;17.00;;
3121;SDS011;1571;52.524;14.104;2023-05-21T00:13:51;16.73;;;15.13;;
3121;SDS011;1571;52.524;14.104;2023-05-21T00:16:19;17.37;;;15.67;;
3121;SDS011;1571;52.524;14.104;2023-05-21T00:18:49;16.70;;;15.10;;
3121;SDS011;1571;52.524;14.104;2023-05-21T00:21:20;17.90;;;16.13;;
3121;SDS011;1571;52.524;14.104;2023-05-21T00:23:52;17.80;;;16.00;;
3121;SDS011;1571;52.524;14.104;2023-05-21T00:26:22;20.33;;;18.20;;
3121;SDS011;1571;52.524;14.104;2023-05-21T00:28:55;19.20;;;17.43;;
3121;SDS011;1571;52.524;14.104;2023-05-21T00:31:23;20.57;;;18.43;;
3121;SDS011;1571;52.524;14.104;2023-05-21T00:33:53;20.07;;;16.67;;
3121;SDS011;1571;52.524;14.104;2023-05-21T00:36:21;21.57;;;19.20;;
3121;SDS011;1571;52.524;14.104;2023-05-21T00:38:50;23.60;;;19.40;;
3121;SDS011;1571;52.524;14.104;2023-05-21T00:41:18;20.80;;;18.90;;
3121;SDS011;1571;52.524;14.104;2023-05-21T00:43:48;22.27;;;19.87;;
3121;SDS011;1571;52.524;14.104;2023-05-21T00:46:17;21.80;;;19.50;;
3121;SDS011;1571;52.524;14.104;2023-05-21T00:48:47;20.77;;;18.60;;
3121;SDS011;1571;52.524;14.104;2023-05-21T00:51:18;21.07;;;18.87;;
3121;SDS011;1571;52.524;14.104;2023-05-21T00:53:48;21.07;;;18.90;;
3121;SDS011;1571;52.524;14.104;2023-05-21T00:56:18;21.63;;;19.47;;
3121;SDS011;1571;52.524;14.104;2023-05-21T00:58:48;21.90;;;19.83;;
3121;SDS011;1571;52.524;14.104;2023-05-21T01:01:17;25.50;;;20.63;;
3121;SDS011;1571;52.524;14.104;2023-05-21T01:03:47;25.53;;;21.30;;
3121;SDS011;1571;52.524;14.104;2023-05-21T01:06:15;21.13;;;19.03;;
3121;SDS011;1571;52.524;14.104;2023-05-21T01:08:45;22.87;;;20.57;;
3121;SDS011;1571;52.524;14.104;2023-05-21T01:11:14;20.90;;;18.77;;
3121;SDS011;1571;52.524;14.104;2023-05-21T01:13:43;21.27;;;19.17;;
3121;SDS011;1571;52.524;14.104;2023-05-21T01:16:13;21.00;;;18.80;;
3121;SDS011;1571;52.524;14.104;2023-05-21T01:18:43;21.97;;;19.77;;
3121;SDS011;1571;52.524;14.104;2023-05-21T01:21:12;20.67;;;18.50;;
3121;SDS011;1571;52.524;14.104;2023-05-21T01:23:44;21.23;;;19.10;;
3121;SDS011;1571;52.524;14.104;2023-05-21T01:26:12;24.47;;;19.80;;
3121;SDS011;1571;52.524;14.104;2023-05-21T01:28:43;22.70;;;20.50;;
3121;SDS011;1571;52.524;14.104;2023-05-21T01:31:14;20.40;;;18.30;;
3121;SDS011;1571;52.524;14.104;2023-05-21T01:33:48;22.27;;;20.03;;
3121;SDS011;1571;52.524;14.104;2023-05-21T01:36:20;22.80;;;20.60;;
3121;SDS011;1571;52.524;14.104;2023-05-21T01:38:55;21.70;;;19.37;;
3121;SDS011;1571;52.524;14.104;2023-05-21T01:41:27;22.63;;;20.33;;
3121;SDS011;1571;52.524;14.104;2023-05-21T01:43:59;23.53;;;21.23;;
3121;SDS011;1571;52.524;14.104;2023-05-21T01:46:29;24.13;;;21.63;;
3121;SDS011;1571;52.524;14.104;2023-05-21T01:48:58;24.97;;;22.40;;
3121;SDS011;1571;52.524;14.104;2023-05-21T01:51:27;24.57;;;22.07;;
3121;SDS011;1571;52.524;14.104;2023-05-21T01:53:56;25.23;;;22.73;;
3121;SDS011;1571;52.524;14.104;2023-05-21T01:56:25;26.43;;;23.93;;
3121;SDS011;1571;52.524;14.104;2023-05-21T01:58:54;26.80;;;24.10;;
3121;SDS011;1571;52.524;14.104;2023-05-21T02:01:25;26.93;;;24.07;;
3121;SDS011;1571;52.524;14.104;2023-05-21T02:03:56;27.53;;;23.57;;
3121;SDS011;1571;52.524;14.104;2023-05-21T02:06:24;25.87;;;23.20;;
3121;SDS011;1571;52.524;14.104;2023-05-21T02:08:53;26.83;;;24.33;;
3121;SDS011;1571;52.524;14.104;2023-05-21T02:11:23;28.50;;;23.07;;
3121;SDS011;1571;52.524;14.104;2023-05-21T02:13:52;24.90;;;22.60;;
3121;SDS011;1571;52.524;14.104;2023-05-21T02:16:20;30.60;;;24.93;;
3121;SDS011;1571;52.524;14.104;2023-05-21T02:18:48;28.43;;;25.50;;
3121;SDS011;1571;52.524;14.104;2023-05-21T02:21:19;27.37;;;24.70;;
3121;SDS011;1571;52.524;14.104;2023-05-21T02:23:48;25.80;;;23.20;;
3121;SDS011;1571;52.524;14.104;2023-05-21T02:26:16;28.83;;;26.13;;
3121;SDS011;1571;52.524;14.104;2023-05-21T02:28:46;28.27;;;25.47;;
3121;SDS011;1571;52.524;14.104;2023-05-21T02:31:14;30.00;;;26.93;;
3121;SDS011;1571;52.524;14.104;2023-05-21T02:33:42;30.20;;;26.97;;
3121;SDS011;1571;52.524;14.104;2023-05-21T02:39:18;29.13;;;26.13;;
3121;SDS011;1571;52.524;14.104;2023-05-21T02:41:46;30.17;;;27.13;;
3121;SDS011;1571;52.524;14.104;2023-05-21T02:44:16;31.03;;;27.87;;
3121;SDS011;1571;52.524;14.104;2023-05-21T02:46:45;31.43;;;24.83;;
3121;SDS011;1571;52.524;14.104;2023-05-21T02:49:14;30.77;;;27.67;;
3121;SDS011;1571;52.524;14.104;2023-05-21T02:51:45;30.33;;;27.23;;
3121;SDS011;1571;52.524;14.104;2023-05-21T02:54:13;29.63;;;26.57;;
3121;SDS011;1571;52.524;14.104;2023-05-21T02:56:41;29.33;;;26.33;;
3121;SDS011;1571;52.524;14.104;2023-05-21T02:59:09;32.97;;;27.17;;
3121;SDS011;1571;52.524;14.104;2023-05-21T03:01:39;31.70;;;28.50;;
3121;SDS011;1571;52.524;14.104;2023-05-21T03:04:08;32.53;;;29.10;;
3121;SDS011;1571;52.524;14.104;2023-05-21T03:06:36;32.07;;;28.57;;
3121;SDS011;1571;52.524;14.104;2023-05-21T03:09:04;32.57;;;29.07;;
3121;SDS011;1571;52.524;14.104;2023-05-21T03:11:32;31.90;;;28.73;;
3121;SDS011;1571;52.524;14.104;2023-05-21T03:14:00;32.67;;;29.33;;
3121;SDS011;1571;52.524;14.104;2023-05-21T03:16:28;33.00;;;29.43;;
3121;SDS011;1571;52.524;14.104;2023-05-21T03:19:02;32.40;;;28.83;;
3121;SDS011;1571;52.524;14.104;2023-05-21T03:21:30;28.10;;;25.40;;
3121;SDS011;1571;52.524;14.104;2023-05-21T03:23:59;34.67;;;29.10;;
3121;SDS011;1571;52.524;14.104;2023-05-21T03:26:28;31.83;;;28.53;;
3121;SDS011;1571;52.524;14.104;2023-05-21T03:28:57;30.27;;;26.83;;
3121;SDS011;1571;52.524;14.104;2023-05-21T03:31:26;31.90;;;28.60;;
3121;SDS011;1571;52.524;14.104;2023-05-21T03:34:11;30.83;;;27.73;;
3121;SDS011;1571;52.524;14.104;2023-05-21T03:36:39;31.80;;;28.60;;
3121;SDS011;1571;52.524;14.104;2023-05-21T03:39:08;31.27;;;28.00;;
3121;SDS011;1571;52.524;14.104;2023-05-21T03:41:37;31.10;;;27.77;;
3121;SDS011;1571;52.524;14.104;2023-05-21T03:44:09;33.50;;;29.37;;
3121;SDS011;1571;52.524;14.104;2023-05-21T03:46:49;31.23;;;28.00;;
3121;SDS011;1571;52.524;14.104;2023-05-21T03:49:23;33.27;;;29.70;;
3121;SDS011;1571;52.524;14.104;2023-05-21T03:51:53;33.73;;;30.23;;
3121;SDS011;1571;52.524;14.104;2023-05-21T03:54:23;31.37;;;28.23;;
3121;SDS011;1571;52.524;14.104;2023-05-21T03:56:55;34.23;;;29.70;;
3121;SDS011;1571;52.524;14.104;2023-05-21T03:59:24;34.83;;;31.03;;
3121;SDS011;1571;52.524;14.104;2023-05-21T04:01:53;31.77;;;28.37;;
3121;SDS011;1571;52.524;14.104;2023-05-21T04:04:22;33.17;;;29.97;;
3121;SDS011;1571;52.524;14.104;2023-05-21T04:06:50;31.90;;;28.87;;
3121;SDS011;1571;52.524;14.104;2023-05-21T04:09:21;31.83;;;28.40;;
3121;SDS011;1571;52.524;14.104;2023-05-21T04:11:51;31.70;;;28.40;;
3121;SDS011;1571;52.524;14.104;2023-05-21T04:14:19;29.00;;;25.90;;
3121;SDS011;1571;52.524;14.104;2023-05-21T04:16:47;32.73;;;29.33;;
3121;SDS011;1571;52.524;14.104;2023-05-21T04:19:16;29.70;;;26.80;;
3121;SDS011;1571;52.524;14.104;2023-05-21T04:21:45;29.77;;;26.57;;
3121;SDS011;1571;52.524;14.104;2023-05-21T04:24:14;32.57;;;29.17;;
3121;SDS011;1571;52.524;14.104;2023-05-21T04:26:48;30.93;;;27.80;;
3121;SDS011;1571;52.524;14.104;2023-05-21T04:29:17;32.93;;;29.70;;
3121;SDS011;1571;52.524;14.104;2023-05-21T04:31:48;28.60;;;25.70;;
3121;SDS011;1571;52.524;14.104;2023-05-21T04:34:16;29.97;;;26.90;;
3121;SDS011;1571;52.524;14.104;2023-05-21T04:36:47;30.07;;;27.07;;
3121;SDS011;1571;52.524;14.104;2023-05-21T04:39:15;30.00;;;26.97;;
3121;SDS011;1571;52.524;14.104;2023-05-21T04:41:43;29.43;;;26.50;;
3121;SDS011;1571;52.524;14.104;2023-05-21T04:44:12;28.20;;;25.20;;
3121;SDS011;1571;52.524;14.104;2023-05-21T04:46:42;29.00;;;25.40;;
3121;SDS011;1571;52.524;14.104;2023-05-21T04:49:12;28.80;;;25.90;;
3121;SDS011;1571;52.524;14.104;2023-05-21T04:51:41;30.40;;;27.30;;
3121;SDS011;1571;52.524;14.104;2023-05-21T04:54:10;30.40;;;27.30;;
3121;SDS011;1571;52.524;14.104;2023-05-21T04:56:39;30.57;;;27.43;;
3121;SDS011;1571;52.524;14.104;2023-05-21T04:59:07;28.70;;;25.80;;
3121;SDS011;1571;52.524;14.104;2023-05-21T05:01:35;30.83;;;26.60;;
3121;SDS011;1571;52.524;14.104;2023-05-21T05:04:04;28.77;;;25.87;;
3121;SDS011;1571;52.524;14.104;2023-05-21T05:06:32;26.90;;;24.03;;
3121;SDS011;1571;52.524;14.104;2023-05-21T05:09:01;27.90;;;25.20;;
3121;SDS011;1571;52.524;14.104;2023-05-21T05:11:31;29.77;;;26.77;;
3121;SDS011;1571;52.524;14.104;2023-05-21T05:13:59;26.40;;;23.77;;
3121;SDS011;1571;52.524;14.104;2023-05-21T05:16:28;27.53;;;24.57;;
3121;SDS011;1571;52.524;14.104;2023-05-21T05:18:57;29.27;;;25.93;;
3121;SDS011;1571;52.524;14.104;2023-05-21T05:21:25;30.43;;;25.17;;
3121;SDS011;1571;52.524;14.104;2023-05-21T05:23:54;30.17;;;25.07;;
3121;SDS011;1571;52.524;14.104;2023-05-21T05:26:27;27.00;;;24.30;;
3121;SDS011;1571;52.524;14.104;2023-05-21T05:28:57;25.53;;;23.20;;
3121;SDS011;1571;52.524;14.104;2023-05-21T05:31:25;26.77;;;24.37;;
3121;SDS011;1571;52.524;14.104;2023-05-21T05:33:54;27.80;;;24.90;;
3121;SDS011;1571;52.524;14.104;2023-05-21T05:36:23;27.40;;;24.60;;
3121;SDS011;1571;52.524;14.104;2023-05-21T05:38:51;25.93;;;22.03;;
3121;SDS011;1571;52.524;14.104;2023-05-21T05:41:20;23.37;;;21.17;;
3121;SDS011;1571;52.524;14.104;2023-05-21T05:43:49;24.40;;;21.93;;
3121;SDS011;1571;52.524;14.104;2023-05-21T05:46:21;27.50;;;22.80;;
3121;SDS011;1571;52.524;14.104;2023-05-21T05:48:50;24.30;;;21.70;;
3121;SDS011;1571;52.524;14.104;2023-05-21T05:51:19;29.17;;;21.57;;
3121;SDS011;1571;52.524;14.104;2023-05-21T05:53:47;24.87;;;22.33;;
3121;SDS011;1571;52.524;14.104;2023-05-21T05:56:15;26.13;;;23.47;;
3121;SDS011;1571;52.524;14.104;2023-05-21T05:58:43;23.87;;;21.57;;
3121;SDS011;1571;52.524;14.104;2023-05-21T06:01:15;24.30;;;20.57;;
3121;SDS011;1571;52.524;14.104;2023-05-21T06:03:45;23.10;;;20.63;;
3121;SDS011;1571;52.524;14.104;2023-05-21T06:06:16;24.10;;;21.53;;
3121;SDS011;1571;52.524;14.104;2023-05-21T06:08:44;22.80;;;20.60;;
3121;SDS011;1571;52.524;14.104;2023-05-21T06:11:13;19.80;;;18.00;;
3121;SDS011;1571;52.524;14.104;2023-05-21T06:13:43;24.67;;;22.13;;
3121;SDS011;1571;52.524;14.104;2023-05-21T06:16:13;23.70;;;19.70;;
3121;SDS011;1571;52.524;14.104;2023-05-21T06:18:42;22.53;;;20.43;;
3121;SDS011;1571;52.524;14.104;2023-05-21T06:21:11;23.57;;;21.37;;
3121;SDS011;1571;52.524;14.104;2023-05-21T06:23:40;22.97;;;20.60;;
3121;SDS011;1571;52.524;14.104;2023-05-21T06:26:08;20.70;;;18.50;;
3121;SDS011;1571;52.524;14.104;2023-05-21T06:28:37;21.90;;;19.70;;
3121;SDS011;1571;52.524;14.104;2023-05-21T06:31:07;22.33;;;20.30;;
3121;SDS011;1571;52.524;14.104;2023-05-21T06:33:37;23.03;;;20.90;;
3121;SDS011;1571;52.524;14.104;2023-05-21T06:36:06;19.90;;;18.20;;
3121;SDS011;1571;52.524;14.104;2023-05-21T06:38:35;21.07;;;18.77;;
3121;SDS011;1571;52.524;14.104;2023-05-21T06:41:04;20.97;;;18.23;;
3121;SDS011;1571;52.524;14.104;2023-05-21T06:43:51;20.00;;;17.90;;
3121;SDS011;1571;52.524;14.104;2023-05-21T06:46:38;18.27;;;16.37;;
3121;SDS011;1571;52.524;14.104;2023-05-21T06:49:08;17.13;;;15.57;;
3121;SDS011;1571;52.524;14.104;2023-05-21T06:51:40;17.47;;;15.87;;
3121;SDS011;1571;52.524;14.104;2023-05-21T06:54:12;15.67;;;14.13;;
3121;SDS011;1571;52.524;14.104;2023-05-21T06:56:41;16.20;;;14.70;;
3121;SDS011;1571;52.524;14.104;2023-05-21T06:59:09;15.00;;;13.60;;
3121;SDS011;1571;52.524;14.104;2023-05-21T07:01:37;14.90;;;13.67;;
3121;SDS011;1571;52.524;14.104;2023-05-21T07:04:08;16.80;;;15.10;;
3121;SDS011;1571;52.524;14.104;2023-05-21T07:06:38;16.00;;;14.43;;
3121;SDS011;1571;52.524;14.104;2023-05-21T07:09:07;16.00;;;14.47;;
3121;SDS011;1571;52.524;14.104;2023-05-21T07:11:38;20.20;;;13.67;;
3121;SDS011;1571;52.524;14.104;2023-05-21T07:14:07;15.27;;;13.80;;
3121;SDS011;1571;52.524;14.104;2023-05-21T07:16:37;15.93;;;13.93;;
3121;SDS011;1571;52.524;14.104;2023-05-21T07:19:06;14.37;;;13.07;;
3121;SDS011;1571;52.524;14.104;2023-05-21T07:21:35;14.40;;;13.20;;
3121;SDS011;1571;52.524;14.104;2023-05-21T07:24:05;18.30;;;14.20;;
3121;SDS011;1571;52.524;14.104;2023-05-21T07:26:39;13.60;;;12.20;;
3121;SDS011;1571;52.524;14.104;2023-05-21T07:29:08;12.70;;;11.70;;
3121;SDS011;1571;52.524;14.104;2023-05-21T07:31:37;14.40;;;13.03;;
3121;SDS011;1571;52.524;14.104;2023-05-21T07:34:06;13.87;;;12.57;;
3121;SDS011;1571;52.524;14.104;2023-05-21T07:36:34;14.80;;;13.50;;
3121;SDS011;1571;52.524;14.104;2023-05-21T07:39:03;14.53;;;13.13;;
3121;SDS011;1571;52.524;14.104;2023-05-21T07:41:31;14.10;;;12.73;;
3121;SDS011;1571;52.524;14.104;2023-05-21T07:44:04;13.00;;;11.70;;
3121;SDS011;1571;52.524;14.104;2023-05-21T07:46:36;15.67;;;12.10;;
3121;SDS011;1571;52.524;14.104;2023-05-21T07:49:04;13.23;;;12.13;;
3121;SDS011;1571;52.524;14.104;2023-05-21T07:51:33;13.37;;;12.17;;
3121;SDS011;1571;52.524;14.104;2023-05-21T07:54:02;14.90;;;13.07;;
3121;SDS011;1571;52.524;14.104;2023-05-21T07:56:34;12.40;;;11.30;;
3121;SDS011;1571;52.524;14.104;2023-05-21T07:59:05;13.53;;;12.33;;
3121;SDS011;1571;52.524;14.104;2023-05-21T08:01:35;12.80;;;11.70;;
3121;SDS011;1571;52.524;14.104;2023-05-21T08:04:04;14.00;;;12.50;;
3121;SDS011;1571;52.524;14.104;2023-05-21T08:06:35;14.93;;;12.20;;
3121;SDS011;1571;52.524;14.104;2023-05-21T08:09:05;13.87;;;12.60;;
3121;SDS011;1571;52.524;14.104;2023-05-21T08:11:34;12.90;;;11.80;;
3121;SDS011;1571;52.524;14.104;2023-05-21T08:14:03;13.13;;;11.93;;
3121;SDS011;1571;52.524;14.104;2023-05-21T08:16:32;13.43;;;12.07;;
3121;SDS011;1571;52.524;14.104;2023-05-21T08:19:01;13.10;;;11.87;;
3121;SDS011;1571;52.524;14.104;2023-05-21T08:21:29;13.23;;;12.00;;
3121;SDS011;1571;52.524;14.104;2023-05-21T08:23:59;13.73;;;12.30;;
3121;SDS011;1571;52.524;14.104;2023-05-21T08:26:29;13.00;;;11.80;;
3121;SDS011;1571;52.524;14.104;2023-05-21T08:28:57;12.23;;;11.03;;
3121;SDS011;1571;52.524;14.104;2023-05-21T08:31:26;12.40;;;11.20;;
3121;SDS011;1571;52.524;14.104;2023-05-21T08:33:55;11.87;;;10.87;;
3121;SDS011;1571;52.524;14.104;2023-05-21T08:36:36;12.77;;;11.67;;
3121;SDS011;1571;52.524;14.104;2023-05-21T08:39:12;17.23;;;11.73;;
3121;SDS011;1571;52.524;14.104;2023-05-21T08:41:43;14.30;;;12.90;;
3121;SDS011;1571;52.524;14.104;2023-05-21T08:44:15;12.70;;;11.50;;
3121;SDS011;1571;52.524;14.104;2023-05-21T08:46:48;12.77;;;11.50;;
3121;SDS011;1571;52.524;14.104;2023-05-21T08:49:19;13.83;;;12.33;;
3121;SDS011;1571;52.524;14.104;2023-05-21T08:51:54;13.50;;;12.30;;
3121;SDS011;1571;52.524;14.104;2023-05-21T08:54:23;13.87;;;12.57;;
3121;SDS011;1571;52.524;14.104;2023-05-21T08:56:54;13.10;;;11.80;;
3121;SDS011;1571;52.524;14.104;2023-05-21T08:59:24;12.37;;;11.23;;
3121;SDS011;1571;52.524;14.104;2023-05-21T09:01:54;12.80;;;11.70;;
3121;SDS011;1571;52.524;14.104;2023-05-21T09:04:31;11.37;;;10.40;;
3121;SDS011;1571;52.524;14.104;2023-05-21T09:07:00;12.50;;;11.30;;
3121;SDS011;1571;52.524;14.104;2023-05-21T09:09:55;11.50;;;10.60;;
3121;SDS011;1571;52.524;14.104;2023-05-21T09:12:25;14.93;;;11.57;;
3121;SDS011;1571;52.524;14.104;2023-05-21T09:14:57;12.57;;;11.47;;
3121;SDS011;1571;52.524;14.104;2023-05-21T09:17:31;11.50;;;10.37;;
3121;SDS011;1571;52.524;14.104;2023-05-21T09:20:13;12.43;;;11.43;;
3121;SDS011;1571;52.524;14.104;2023-05-21T09:22:51;11.57;;;10.57;;
3121;SDS011;1571;52.524;14.104;2023-05-21T09:25:22;11.40;;;10.13;;
3121;SDS011;1571;52.524;14.104;2023-05-21T09:27:57;11.80;;;10.70;;
3121;SDS011;1571;52.524;14.104;2023-05-21T09:30:26;12.13;;;10.93;;
3121;SDS011;1571;52.524;14.104;2023-05-21T09:32:59;11.90;;;10.90;;
3121;SDS011;1571;52.524;14.104;2023-05-21T09:35:29;19.77;;;11.03;;
3121;SDS011;1571;52.524;14.104;2023-05-21T09:37:57;10.60;;;9.67;;
3121;SDS011;1571;52.524;14.104;2023-05-21T09:40:25;10.33;;;9.40;;
3121;SDS011;1571;52.524;14.104;2023-05-21T09:42:54;10.77;;;9.87;;
3121;SDS011;1571;52.524;14.104;2023-05-21T09:45:23;10.53;;;9.63;;
3121;SDS011;1571;52.524;14.104;2023-05-21T09:47:55;10.80;;;9.80;;
3121;SDS011;1571;52.524;14.104;2023-05-21T09:50:24;10.20;;;8.60;;
3121;SDS011;1571;52.524;14.104;2023-05-21T09:52:55;9.60;;;8.73;;
3121;SDS011;1571;52.524;14.104;2023-05-21T09:55:24;9.40;;;8.70;;
3121;SDS011;1571;52.524;14.104;2023-05-21T09:57:53;9.70;;;8.80;;
3121;SDS011;1571;52.524;14.104;2023-05-21T10:00:22;11.53;;;8.20;;
3121;SDS011;1571;52.524;14.104;2023-05-21T10:02:53;6.53;;;6.00;;
3121;SDS011;1571;52.524;14.104;2023-05-21T10:05:23;7.33;;;6.77;;
3121;SDS011;1571;52.524;14.104;2023-05-21T10:07:55;7.70;;;7.20;;
3121;SDS011;1571;52.524;14.104;2023-05-21T10:10:27;7.60;;;7.00;;
3121;SDS011;1571;52.524;14.104;2023-05-21T10:12:57;7.57;;;6.63;;
3121;SDS011;1571;52.524;14.104;2023-05-21T10:15:29;7.03;;;6.30;;
3121;SDS011;1571;52.524;14.104;2023-05-21T10:18:02;7.17;;;6.50;;
3121;SDS011;1571;52.524;14.104;2023-05-21T10:20:30;8.07;;;6.07;;
3121;SDS011;1571;52.524;14.104;2023-05-21T10:23:00;7.87;;;5.80;;
3121;SDS011;1571;52.524;14.104;2023-05-21T10:25:29;6.20;;;5.70;;
3121;SDS011;1571;52.524;14.104;2023-05-21T10:27:58;6.77;;;6.27;;
3121;SDS011;1571;52.524;14.104;2023-05-21T10:30:27;7.83;;;5.60;;
3121;SDS011;1571;52.524;14.104;2023-05-21T10:32:56;7.23;;;6.47;;
3121;SDS011;1571;52.524;14.104;2023-05-21T10:35:27;7.47;;;5.13;;
3121;SDS011;1571;52.524;14.104;2023-05-21T10:37:57;5.93;;;5.47;;
3121;SDS011;1571;52.524;14.104;2023-05-21T10:40:28;5.83;;;5.17;;
3121;SDS011;1571;52.524;14.104;2023-05-21T10:43:07;5.40;;;5.00;;
3121;SDS011;1571;52.524;14.104;2023-05-21T10:45:50;5.00;;;4.60;;
3121;SDS011;1571;52.524;14.104;2023-05-21T10:48:32;6.30;;;5.77;;
3121;SDS011;1571;52.524;14.104;2023-05-21T10:51:17;6.23;;;5.73;;
3121;SDS011;1571;52.524;14.104;2023-05-21T10:53:55;6.27;;;5.57;;
3121;SDS011;1571;52.524;14.104;2023-05-21T10:56:37;5.47;;;5.00;;
3121;SDS011;1571;52.524;14.104;2023-05-21T10:59:14;6.53;;;5.93;;
3121;SDS011;1571;52.524;14.104;2023-05-21T11:01:49;6.43;;;5.90;;
3121;SDS011;1571;52.524;14.104;2023-05-21T11:04:24;6.03;;;5.47;;
3121;SDS011;1571;52.524;14.104;2023-05-21T11:06:53;5.83;;;5.37;;
3121;SDS011;1571;52.524;14.104;2023-05-21T11:09:22;8.50;;;6.10;;
3121;SDS011;1571;52.524;14.104;2023-05-21T11:11:52;6.20;;;5.60;;
3121;SDS011;1571;52.524;14.104;2023-05-21T11:14:24;6.73;;;6.17;;
3121;SDS011;1571;52.524;14.104;2023-05-21T11:16:57;5.50;;;5.10;;
3121;SDS011;1571;52.524;14.104;2023-05-21T11:19:36;8.93;;;6.07;;
3121;SDS011;1571;52.524;14.104;2023-05-21T11:22:06;5.70;;;5.30;;
3121;SDS011;1571;52.524;14.104;2023-05-21T11:24:36;5.60;;;5.20;;
3121;SDS011;1571;52.524;14.104;2023-05-21T11:27:07;6.23;;;4.60;;
3121;SDS011;1571;52.524;14.104;2023-05-21T11:29:40;5.07;;;4.77;;
3121;SDS011;1571;52.524;14.104;2023-05-21T11:32:11;9.73;;;4.80;;
3121;SDS011;1571;52.524;14.104;2023-05-21T11:34:42;7.03;;;5.23;;
3121;SDS011;1571;52.524;14.104;2023-05-21T11:37:21;7.77;;;5.30;;
3121;SDS011;1571;52.524;14.104;2023-05-21T11:39:53;6.17;;;4.43;;
3121;SDS011;1571;52.524;14.104;2023-05-21T11:42:30;5.73;;;5.33;;
3121;SDS011;1571;52.524;14.104;2023-05-21T11:45:00;5.73;;;4.90;;
3121;SDS011;1571;52.524;14.104;2023-05-21T11:47:30;7.00;;;5.80;;
3121;SDS011;1571;52.524;14.104;2023-05-21T11:49:59;6.40;;;5.17;;
3121;SDS011;1571;52.524;14.104;2023-05-21T11:52:29;5.27;;;4.83;;
3121;SDS011;1571;52.524;14.104;2023-05-21T11:54:58;6.10;;;4.67;;
3121;SDS011;1571;52.524;14.104;2023-05-21T11:57:27;5.20;;;4.90;;
3121;SDS011;1571;52.524;14.104;2023-05-21T11:59:59;5.57;;;5.07;;
3121;SDS011;1571;52.524;14.104;2023-05-21T12:02:40;6.20;;;5.53;;
3121;SDS011;1571;52.524;14.104;2023-05-21T12:05:11;7.40;;;6.13;;
3121;SDS011;1571;52.524;14.104;2023-05-21T12:07:40;6.63;;;4.83;;
3121;SDS011;1571;52.524;14.104;2023-05-21T12:10:08;7.13;;;5.33;;
3121;SDS011;1571;52.524;14.104;2023-05-21T12:12:37;5.50;;;5.00;;
3121;SDS011;1571;52.524;14.104;2023-05-21T12:15:23;7.07;;;4.50;;
3121;SDS011;1571;52.524;14.104;2023-05-21T12:17:53;3.93;;;3.73;;
3121;SDS011;1571;52.524;14.104;2023-05-21T12:20:24;4.10;;;3.90;;
3121;SDS011;1571;52.524;14.104;2023-05-21T12:22:55;4.60;;;4.20;;
3121;SDS011;1571;52.524;14.104;2023-05-21T12:25:24;6.10;;;4.50;;
3121;SDS011;1571;52.524;14.104;2023-05-21T12:27:53;5.40;;;4.73;;
3121;SDS011;1571;52.524;14.104;2023-05-21T12:30:26;4.47;;;4.13;;
3121;SDS011;1571;52.524;14.104;2023-05-21T12:32:56;4.60;;;4.20;;
3121;SDS011;1571;52.524;14.104;2023-05-21T12:35:25;4.93;;;4.43;;
3121;SDS011;1571;52.524;14.104;2023-05-21T12:37:54;5.93;;;5.43;;
3121;SDS011;1571;52.524;14.104;2023-05-21T12:40:32;4.80;;;4.40;;
3121;SDS011;1571;52.524;14.104;2023-05-21T12:43:02;4.60;;;4.30;;
3121;SDS011;1571;52.524;14.104;2023-05-21T12:45:32;5.00;;;4.50;;
3121;SDS011;1571;52.524;14.104;2023-05-21T12:48:02;4.97;;;4.67;;
3121;SDS011;1571;52.524;14.104;2023-05-21T12:50:31;5.30;;;4.97;;
3121;SDS011;1571;52.524;14.104;2023-05-21T12:52:59;8.33;;;4.53;;
3121;SDS011;1571;52.524;14.104;2023-05-21T12:55:27;5.10;;;4.60;;
3121;SDS011;1571;52.524;14.104;2023-05-21T12:58:00;3.80;;;3.60;;
3121;SDS011;1571;52.524;14.104;2023-05-21T13:00:30;4.40;;;4.10;;
3121;SDS011;1571;52.524;14.104;2023-05-21T13:03:01;6.70;;;4.10;;
3121;SDS011;1571;52.524;14.104;2023-05-21T13:05:32;5.10;;;4.60;;
3121;SDS011;1571;52.524;14.104;2023-05-21T13:08:01;4.40;;;4.10;;
3121;SDS011;1571;52.524;14.104;2023-05-21T13:10:29;5.93;;;4.50;;
3121;SDS011;1571;52.524;14.104;2023-05-21T13:12:57;4.63;;;4.30;;
3121;SDS011;1571;52.524;14.104;2023-05-21T13:15:26;4.77;;;4.37;;
3121;SDS011;1571;52.524;14.104;2023-05-21T13:17:55;5.27;;;4.30;;
3121;SDS011;1571;52.524;14.104;2023-05-21T13:20:24;4.37;;;3.87;;
3121;SDS011;1571;52.524;14.104;2023-05-21T13:22:53;5.77;;;3.50;;
3121;SDS011;1571;52.524;14.104;2023-05-21T13:25:22;4.27;;;3.87;;
3121;SDS011;1571;52.524;14.104;2023-05-21T13:27:54;4.20;;;3.90;;
3121;SDS011;1571;52.524;14.104;2023-05-21T13:30:24;5.53;;;4.80;;
3121;SDS011;1571;52.524;14.104;2023-05-21T13:32:52;3.90;;;3.60;;
3121;SDS011;1571;52.524;14.104;2023-05-21T13:35:22;6.00;;;4.23;;
3121;SDS011;1571;52.524;14.104;2023-05-21T13:37:51;4.17;;;3.87;;
3121;SDS011;1571;52.524;14.104;2023-05-21T13:40:19;3.10;;;2.90;;
3121;SDS011;1571;52.524;14.104;2023-05-21T13:42:47;4.87;;;4.33;;
3121;SDS011;1571;52.524;14.104;2023-05-21T13:45:18;4.90;;;4.50;;
3121;SDS011;1571;52.524;14.104;2023-05-21T13:47:47;5.13;;;4.23;;
3121;SDS011;1571;52.524;14.104;2023-05-21T13:50:16;6.43;;;3.90;;
3121;SDS011;1571;52.524;14.104;2023-05-21T13:52:45;6.67;;;3.70;;
3121;SDS011;1571;52.524;14.104;2023-05-21T13:55:13;4.10;;;3.73;;
3121;SDS011;1571;52.524;14.104;2023-05-21T13:57:42;6.13;;;3.93;;
3121;SDS011;1571;52.524;14.104;2023-05-21T14:00:12;4.53;;;4.13;;
3121;SDS011;1571;52.524;14.104;2023-05-21T14:02:42;5.27;;;4.23;;
3121;SDS011;1571;52.524;14.104;2023-05-21T14:05:11;5.90;;;3.87;;
3121;SDS011;1571;52.524;14.104;2023-05-21T14:07:39;3.67;;;3.47;;
3121;SDS011;1571;52.524;14.104;2023-05-21T14:10:10;6.10;;;3.83;;
3121;SDS011;1571;52.524;14.104;2023-05-21T14:12:38;4.00;;;3.60;;
3121;SDS011;1571;52.524;14.104;2023-05-21T14:15:08;5.20;;;3.30;;
3121;SDS011;1571;52.524;14.104;2023-05-21T14:17:37;4.33;;;3.90;;
3121;SDS011;1571;52.524;14.104;2023-05-21T14:20:08;3.97;;;3.33;;
3121;SDS011;1571;52.524;14.104;2023-05-21T14:22:37;3.67;;;3.47;;
3121;SDS011;1571;52.524;14.104;2023-05-21T14:25:06;3.50;;;3.30;;
3121;SDS011;1571;52.524;14.104;2023-05-21T14:27:35;4.30;;;4.00;;
3121;SDS011;1571;52.524;14.104;2023-05-21T14:30:04;3.70;;;3.40;;
3121;SDS011;1571;52.524;14.104;2023-05-21T14:32:34;3.70;;;3.50;;
3121;SDS011;1571;52.524;14.104;2023-05-21T14:35:03;4.80;;;3.37;;
3121;SDS011;1571;52.524;14.104;2023-05-21T14:37:31;5.33;;;3.90;;
3121;SDS011;1571;52.524;14.104;2023-05-21T14:40:00;4.27;;;3.87;;
3121;SDS011;1571;52.524;14.104;2023-05-21T14:42:28;3.50;;;3.20;;
3121;SDS011;1571;52.524;14.104;2023-05-21T14:44:59;4.07;;;3.67;;
3121;SDS011;1571;52.524;14.104;2023-05-21T14:47:44;3.30;;;3.10;;
3121;SDS011;1571;52.524;14.104;2023-05-21T14:50:15;4.43;;;4.03;;
3121;SDS011;1571;52.524;14.104;2023-05-21T14:52:45;3.97;;;3.67;;
3121;SDS011;1571;52.524;14.104;2023-05-21T14:55:13;8.37;;;3.53;;
3121;SDS011;1571;52.524;14.104;2023-05-21T14:57:43;3.83;;;3.57;;
3121;SDS011;1571;52.524;14.104;2023-05-21T15:00:13;3.97;;;3.60;;
3121;SDS011;1571;52.524;14.104;2023-05-21T15:02:41;4.10;;;3.30;;
3121;SDS011;1571;52.524;14.104;2023-05-21T15:05:10;3.97;;;3.57;;